sensor_id;sensor_type;location;lat;lon;timestamp;pressure;altitude;pressure_sealevel;temperature;humidity
4814;BME280;15375;48.540;9.268;2023-09-07T00:01:23;97687.41;;;17.25;100.00
4814;BME280;15375;48.540;9.268;2023-09-07T00:03:49;97663.97;;;17.30;99.67
4814;BME280;15375;48.540;9.268;2023-09-07T00:06:14;97667.88;;;16.80;100.00
4814;BME280;15375;48.540;9.268;2023-09-07T00:08:39;97678.81;;;16.27;100.00
4814;BME280;15375;48.540;9.268;2023-09-07T00:11:06;97649.03;;;15.66;100.00
4814;BME280;15375;48.540;9.268;2023-09-07T00:13:32;97682.34;;;15.81;100.00
4814;BME280;15375;48.540;9.268;2023-09-07T00:15:59;97685.81;;;16.07;100.00
4814;BME280;15375;48.540;9.268;2023-09-07T00:18:25;97674.97;;;15.90;100.00
4814;BME280;15375;48.540;9.268;2023-09-07T00:20:51;97662.88;;;15.88;100.00
4814;BME280;15375;48.540;9.268;2023-09-07T00:23:16;97663.78;;;16.41;100.00
4814;BME280;15375;48.540;9.268;2023-09-07T00:25:42;97646.66;;;16.24;100.00
4814;BME280;15375;48.540;9.268;2023-09-07T00:28:07;97671.91;;;16.44;100.00
4814;BME280;15375;48.540;9.268;2023-09-07T00:30:32;97673.25;;;16.83;100.00
4814;BME280;15375;48.540;9.268;2023-09-07T00:32:58;97651.41;;;16.89;100.00
4814;BME280;15375;48.540;9.268;2023-09-07T00:35:23;97669.28;;;16.84;100.00
4814;BME280;15375;48.540;9.268;2023-09-07T00:37:48;97667.31;;;16.63;99.43
4814;BME280;15375;48.540;9.268;2023-09-07T00:40:14;97669.28;;;16.41;100.00
4814;BME280;15375;48.540;9.268;2023-09-07T00:42:39;97647.19;;;16.32;99.59
4814;BME280;15375;48.540;9.268;2023-09-07T00:45:05;97675.72;;;16.47;100.00
4814;BME280;15375;48.540;9.268;2023-09-07T00:47:33;97680.31;;;16.07;100.00
4814;BME280;15375;48.540;9.268;2023-09-07T00:50:00;97693.59;;;15.74;100.00
4814;BME280;15375;48.540;9.268;2023-09-07T00:52:25;97679.84;;;16.42;100.00
4814;BME280;15375;48.540;9.268;2023-09-07T00:54:52;97667.25;;;16.54;100.00
4814;BME280;15375;48.540;9.268;2023-09-07T00:57:17;97645.44;;;16.47;99.76
4814;BME280;15375;48.540;9.268;2023-09-07T00:59:43;97671.41;;;16.03;100.00
4814;BME280;15375;48.540;9.268;2023-09-07T01:02:08;97669.78;;;15.92;100.00
4814;BME280;15375;48.540;9.268;2023-09-07T01:04:33;97659.75;;;15.98;100.00
4814;BME280;15375;48.540;9.268;2023-09-07T01:07:25;97656.03;;;15.92;100.00
4814;BME280;15375;48.540;9.268;2023-09-07T01:09:59;97670.03;;;16.20;100.00
4814;BME280;15375;48.540;9.268;2023-09-07T01:12:25;97677.72;;;16.25;100.00
4814;BME280;15375;48.540;9.268;2023-09-07T01:14:51;97667.72;;;16.18;100.00
4814;BME280;15375;48.540;9.268;2023-09-07T01:17:18;97669.34;;;16.28;100.00
4814;BME280;15375;48.540;9.268;2023-09-07T01:19:44;97660.41;;;16.03;100.00
4814;BME280;15375;48.540;9.268;2023-09-07T01:22:09;97662.75;;;16.26;100.00
4814;BME280;15375;48.540;9.268;2023-09-07T01:24:37;97679.69;;;16.24;100.00
4814;BME280;15375;48.540;9.268;2023-09-07T01:27:04;97662.50;;;16.54;100.00
4814;BME280;15375;48.540;9.268;2023-09-07T01:29:31;97664.56;;;16.63;100.00
4814;BME280;15375;48.540;9.268;2023-09-07T01:31:56;97650.72;;;16.54;97.92
4814;BME280;15375;48.540;9.268;2023-09-07T01:34:23;97649.06;;;16.56;100.00
4814;BME280;15375;48.540;9.268;2023-09-07T01:36:49;97670.28;;;16.13;100.00
4814;BME280;15375;48.540;9.268;2023-09-07T01:39:15;97654.19;;;15.77;100.00
4814;BME280;15375;48.540;9.268;2023-09-07T01:41:42;97659.19;;;15.19;100.00
4814;BME280;15375;48.540;9.268;2023-09-07T01:44:07;97660.50;;;15.27;100.00
4814;BME280;15375;48.540;9.268;2023-09-07T01:46:33;97658.00;;;15.45;100.00
4814;BME280;15375;48.540;9.268;2023-09-07T01:48:58;97675.16;;;15.96;100.00
4814;BME280;15375;48.540;9.268;2023-09-07T01:51:23;97662.41;;;16.24;100.00
4814;BME280;15375;48.540;9.268;2023-09-07T01:53:53;97664.09;;;16.43;100.00
4814;BME280;15375;48.540;9.268;2023-09-07T01:56:18;97650.97;;;16.25;100.00
4814;BME280;15375;48.540;9.268;2023-09-07T01:58:44;97680.00;;;15.92;100.00
4814;BME280;15375;48.540;9.268;2023-09-07T02:01:30;97683.25;;;15.78;100.00
4814;BME280;15375;48.540;9.268;2023-09-07T02:03:55;97650.69;;;15.64;100.00
4814;BME280;15375;48.540;9.268;2023-09-07T02:06:21;97670.78;;;16.20;100.00
4814;BME280;15375;48.540;9.268;2023-09-07T02:08:46;97671.06;;;16.13;100.00
4814;BME280;15375;48.540;9.268;2023-09-07T02:11:12;97671.94;;;16.32;100.00
4814;BME280;15375;48.540;9.268;2023-09-07T02:13:37;97658.09;;;16.01;100.00
4814;BME280;15375;48.540;9.268;2023-09-07T02:16:06;97655.00;;;15.99;100.00
4814;BME280;15375;48.540;9.268;2023-09-07T02:18:32;97668.63;;;16.37;100.00
4814;BME280;15375;48.540;9.268;2023-09-07T02:21:04;97664.06;;;16.55;100.00
4814;BME280;15375;48.540;9.268;2023-09-07T02:23:31;97668.78;;;16.33;100.00
4814;BME280;15375;48.540;9.268;2023-09-07T02:25:56;97654.28;;;16.42;100.00
4814;BME280;15375;48.540;9.268;2023-09-07T02:28:23;97663.63;;;16.23;95.99
4814;BME280;15375;48.540;9.268;2023-09-07T02:30:49;97665.94;;;16.24;100.00
4814;BME280;15375;48.540;9.268;2023-09-07T02:33:14;97666.84;;;15.74;100.00
4814;BME280;15375;48.540;9.268;2023-09-07T02:35:39;97672.13;;;15.69;100.00
4814;BME280;15375;48.540;9.268;2023-09-07T02:38:05;97641.56;;;16.01;100.00
4814;BME280;15375;48.540;9.268;2023-09-07T02:40:30;97662.94;;;15.97;100.00
4814;BME280;15375;48.540;9.268;2023-09-07T02:42:56;97654.34;;;16.08;100.00
4814;BME280;15375;48.540;9.268;2023-09-07T02:45:21;97675.00;;;16.12;98.13
4814;BME280;15375;48.540;9.268;2023-09-07T02:47:46;97670.53;;;15.46;100.00
4814;BME280;15375;48.540;9.268;2023-09-07T02:50:14;97675.03;;;15.53;100.00
4814;BME280;15375;48.540;9.268;2023-09-07T02:52:41;97638.63;;;15.49;100.00
4814;BME280;15375;48.540;9.268;2023-09-07T02:55:06;97671.13;;;15.88;100.00
4814;BME280;15375;48.540;9.268;2023-09-07T02:57:32;97655.06;;;15.86;100.00
4814;BME280;15375;48.540;9.268;2023-09-07T02:59:57;97654.22;;;15.98;100.00
4814;BME280;15375;48.540;9.268;2023-09-07T03:02:22;97660.25;;;16.06;100.00
4814;BME280;15375;48.540;9.268;2023-09-07T03:04:53;97657.97;;;16.26;100.00
4814;BME280;15375;48.540;9.268;2023-09-07T03:07:18;97655.31;;;16.35;99.49
4814;BME280;15375;48.540;9.268;2023-09-07T03:09:44;97646.53;;;15.59;99.59
4814;BME280;15375;48.540;9.268;2023-09-07T03:12:09;97654.13;;;15.30;100.00
4814;BME280;15375;48.540;9.268;2023-09-07T03:14:35;97653.13;;;15.24;100.00
4814;BME280;15375;48.540;9.268;2023-09-07T03:17:00;97640.94;;;15.00;100.00
4814;BME280;15375;48.540;9.268;2023-09-07T03:19:26;97600.06;;;14.77;100.00
4814;BME280;15375;48.540;9.268;2023-09-07T03:21:52;97645.34;;;15.35;100.00
4814;BME280;15375;48.540;9.268;2023-09-07T03:24:17;97625.25;;;15.25;100.00
4814;BME280;15375;48.540;9.268;2023-09-07T03:26:43;97649.63;;;15.11;100.00
4814;BME280;15375;48.540;9.268;2023-09-07T03:29:09;97642.91;;;14.87;100.00
4814;BME280;15375;48.540;9.268;2023-09-07T03:31:34;97639.06;;;14.84;100.00
4814;BME280;15375;48.540;9.268;2023-09-07T03:34:00;97661.22;;;14.64;100.00
4814;BME280;15375;48.540;9.268;2023-09-07T03:36:26;97663.13;;;14.39;100.00
4814;BME280;15375;48.540;9.268;2023-09-07T03:38:51;97651.22;;;14.70;100.00
4814;BME280;15375;48.540;9.268;2023-09-07T03:41:16;97622.91;;;14.74;100.00
4814;BME280;15375;48.540;9.268;2023-09-07T03:43:42;97649.19;;;14.46;100.00
4814;BME280;15375;48.540;9.268;2023-09-07T03:46:07;97651.25;;;14.13;100.00
4814;BME280;15375;48.540;9.268;2023-09-07T03:48:32;97649.41;;;13.94;100.00
4814;BME280;15375;48.540;9.268;2023-09-07T03:50:58;97641.44;;;13.99;100.00
4814;BME280;15375;48.540;9.268;2023-09-07T03:53:23;97653.97;;;14.29;100.00
4814;BME280;15375;48.540;9.268;2023-09-07T03:55:48;97649.91;;;14.62;100.00
4814;BME280;15375;48.540;9.268;2023-09-07T03:58:14;97646.09;;;15.61;100.00
4814;BME280;15375;48.540;9.268;2023-09-07T04:00:40;97636.47;;;15.90;100.00
4814;BME280;15375;48.540;9.268;2023-09-07T04:03:07;97648.72;;;16.33;100.00
4814;BME280;15375;48.540;9.268;2023-09-07T04:05:32;97639.81;;;16.29;97.74
4814;BME280;15375;48.540;9.268;2023-09-07T04:07:58;97624.47;;;16.40;97.63
4814;BME280;15375;48.540;9.268;2023-09-07T04:10:25;97619.72;;;15.98;96.85
4814;BME280;15375;48.540;9.268;2023-09-07T04:12:51;97631.13;;;15.62;100.00
4814;BME280;15375;48.540;9.268;2023-09-07T04:15:16;97648.41;;;15.62;97.30
4814;BME280;15375;48.540;9.268;2023-09-07T04:17:42;97632.38;;;16.17;100.00
4814;BME280;15375;48.540;9.268;2023-09-07T04:20:08;97644.69;;;16.25;97.45
4814;BME280;15375;48.540;9.268;2023-09-07T04:22:34;97617.53;;;15.92;97.04
4814;BME280;15375;48.540;9.268;2023-09-07T04:24:59;97643.97;;;15.77;96.17
4814;BME280;15375;48.540;9.268;2023-09-07T04:27:25;97639.84;;;15.22;100.00
4814;BME280;15375;48.540;9.268;2023-09-07T04:29:51;97645.34;;;15.22;100.00
4814;BME280;15375;48.540;9.268;2023-09-07T04:32:16;97658.66;;;15.49;100.00
4814;BME280;15375;48.540;9.268;2023-09-07T04:34:41;97652.72;;;15.98;99.50
4814;BME280;15375;48.540;9.268;2023-09-07T04:37:06;97635.53;;;15.59;96.49
4814;BME280;15375;48.540;9.268;2023-09-07T04:39:32;97658.41;;;15.56;100.00
4814;BME280;15375;48.540;9.268;2023-09-07T04:41:57;97624.41;;;15.75;99.26
4814;BME280;15375;48.540;9.268;2023-09-07T04:44:22;97639.41;;;15.49;96.59
4814;BME280;15375;48.540;9.268;2023-09-07T04:46:48;97648.41;;;15.37;100.00
4814;BME280;15375;48.540;9.268;2023-09-07T04:49:13;97616.13;;;16.10;97.37
4814;BME280;15375;48.540;9.268;2023-09-07T04:51:39;97645.03;;;15.92;93.30
4814;BME280;15375;48.540;9.268;2023-09-07T04:54:04;97660.91;;;15.76;96.87
4814;BME280;15375;48.540;9.268;2023-09-07T04:56:29;97643.56;;;15.41;98.19
4814;BME280;15375;48.540;9.268;2023-09-07T04:58:55;97659.53;;;15.46;99.83
4814;BME280;15375;48.540;9.268;2023-09-07T05:01:20;97628.16;;;15.56;97.24
4814;BME280;15375;48.540;9.268;2023-09-07T05:03:45;97655.22;;;15.70;99.06
4814;BME280;15375;48.540;9.268;2023-09-07T05:06:11;97662.09;;;15.87;97.19
4814;BME280;15375;48.540;9.268;2023-09-07T05:08:36;97633.13;;;15.49;97.56
4814;BME280;15375;48.540;9.268;2023-09-07T05:11:03;97657.84;;;15.61;94.99
4814;BME280;15375;48.540;9.268;2023-09-07T05:13:29;97648.19;;;14.94;100.00
4814;BME280;15375;48.540;9.268;2023-09-07T05:15:56;97663.69;;;15.00;100.00
4814;BME280;15375;48.540;9.268;2023-09-07T05:18:22;97655.09;;;15.74;100.00
4814;BME280;15375;48.540;9.268;2023-09-07T05:20:47;97649.75;;;15.45;100.00
4814;BME280;15375;48.540;9.268;2023-09-07T05:23:20;97666.56;;;15.60;100.00
4814;BME280;15375;48.540;9.268;2023-09-07T05:25:47;97660.88;;;15.88;98.80
4814;BME280;15375;48.540;9.268;2023-09-07T05:28:14;97637.72;;;15.98;98.99
4814;BME280;15375;48.540;9.268;2023-09-07T05:30:40;97652.63;;;16.23;94.15
4814;BME280;15375;48.540;9.268;2023-09-07T05:33:06;97657.50;;;16.84;95.94
4814;BME280;15375;48.540;9.268;2023-09-07T05:35:31;97660.84;;;16.79;88.18
4814;BME280;15375;48.540;9.268;2023-09-07T05:37:58;97675.69;;;16.38;92.06
4814;BME280;15375;48.540;9.268;2023-09-07T05:40:23;97667.09;;;16.79;94.60
4814;BME280;15375;48.540;9.268;2023-09-07T05:42:49;97683.34;;;17.39;85.78
4814;BME280;15375;48.540;9.268;2023-09-07T05:45:15;97668.44;;;17.67;86.55
4814;BME280;15375;48.540;9.268;2023-09-07T05:47:40;97676.69;;;19.54;77.11
4814;BME280;15375;48.540;9.268;2023-09-07T05:50:06;97665.97;;;21.58;65.81
4814;BME280;15375;48.540;9.268;2023-09-07T05:52:31;97675.97;;;23.48;57.70
4814;BME280;15375;48.540;9.268;2023-09-07T05:54:56;97671.84;;;25.10;53.45
4814;BME280;15375;48.540;9.268;2023-09-07T05:57:22;97680.66;;;26.03;50.04
4814;BME280;15375;48.540;9.268;2023-09-07T05:59:47;97669.72;;;26.68;49.22
4814;BME280;15375;48.540;9.268;2023-09-07T06:02:12;97683.66;;;27.79;46.64
4814;BME280;15375;48.540;9.268;2023-09-07T06:04:38;97692.94;;;27.68;45.49
4814;BME280;15375;48.540;9.268;2023-09-07T06:07:03;97677.06;;;28.01;44.72
4814;BME280;15375;48.540;9.268;2023-09-07T06:09:29;97699.28;;;28.60;44.60
4814;BME280;15375;48.540;9.268;2023-09-07T06:11:57;97678.50;;;28.50;43.93
4814;BME280;15375;48.540;9.268;2023-09-07T06:14:22;97687.31;;;28.41;44.34
4814;BME280;15375;48.540;9.268;2023-09-07T06:16:48;97687.78;;;29.20;44.24
4814;BME280;15375;48.540;9.268;2023-09-07T06:19:13;97687.41;;;28.54;45.40
4814;BME280;15375;48.540;9.268;2023-09-07T06:21:38;97667.41;;;28.20;44.67
4814;BME280;15375;48.540;9.268;2023-09-07T06:24:04;97666.41;;;27.94;45.24
4814;BME280;15375;48.540;9.268;2023-09-07T06:26:31;97668.06;;;28.88;43.80
4814;BME280;15375;48.540;9.268;2023-09-07T06:28:56;97676.47;;;29.25;43.14
4814;BME280;15375;48.540;9.268;2023-09-07T06:31:22;97679.41;;;29.33;42.62
4814;BME280;15375;48.540;9.268;2023-09-07T06:33:47;97670.94;;;29.64;43.39
4814;BME280;15375;48.540;9.268;2023-09-07T06:36:13;97644.59;;;30.07;41.67
4814;BME280;15375;48.540;9.268;2023-09-07T06:38:38;97667.69;;;29.73;42.27
4814;BME280;15375;48.540;9.268;2023-09-07T06:41:03;97662.84;;;30.53;41.80
4814;BME280;15375;48.540;9.268;2023-09-07T06:43:30;97679.03;;;32.10;39.17
4814;BME280;15375;48.540;9.268;2023-09-07T06:46:10;97686.91;;;32.32;38.92
4814;BME280;15375;48.540;9.268;2023-09-07T06:48:35;97687.00;;;31.49;40.29
4814;BME280;15375;48.540;9.268;2023-09-07T06:51:05;97686.75;;;32.45;39.52
4814;BME280;15375;48.540;9.268;2023-09-07T06:53:30;97689.22;;;31.43;40.47
4814;BME280;15375;48.540;9.268;2023-09-07T06:55:59;97691.22;;;31.77;40.42
4814;BME280;15375;48.540;9.268;2023-09-07T06:58:25;97690.34;;;30.47;42.05
4814;BME280;15375;48.540;9.268;2023-09-07T07:00:50;97673.19;;;31.38;40.42
4814;BME280;15375;48.540;9.268;2023-09-07T07:03:16;97686.47;;;31.72;40.35
4814;BME280;15375;48.540;9.268;2023-09-07T07:05:41;97690.28;;;29.23;44.14
4814;BME280;15375;48.540;9.268;2023-09-07T07:08:07;97692.09;;;28.03;46.57
4814;BME280;15375;48.540;9.268;2023-09-07T07:10:33;97678.75;;;26.90;48.65
4814;BME280;15375;48.540;9.268;2023-09-07T07:12:58;97709.63;;;25.11;53.72
4814;BME280;15375;48.540;9.268;2023-09-07T07:15:25;97700.94;;;24.75;55.39
4814;BME280;15375;48.540;9.268;2023-09-07T07:17:50;97680.44;;;25.01;54.56
4814;BME280;15375;48.540;9.268;2023-09-07T07:20:16;97691.38;;;25.15;53.92
4814;BME280;15375;48.540;9.268;2023-09-07T07:22:41;97663.97;;;24.16;56.77
4814;BME280;15375;48.540;9.268;2023-09-07T07:25:06;97690.34;;;24.21;57.24
4814;BME280;15375;48.540;9.268;2023-09-07T07:27:32;97687.59;;;24.26;57.48
4814;BME280;15375;48.540;9.268;2023-09-07T07:29:57;97701.09;;;24.02;59.45
4814;BME280;15375;48.540;9.268;2023-09-07T07:32:23;97699.13;;;24.61;57.34
4814;BME280;15375;48.540;9.268;2023-09-07T07:34:48;97687.56;;;25.02;56.86
4814;BME280;15375;48.540;9.268;2023-09-07T07:37:14;97681.59;;;24.55;57.10
4814;BME280;15375;48.540;9.268;2023-09-07T07:39:40;97664.63;;;24.00;59.61
4814;BME280;15375;48.540;9.268;2023-09-07T07:42:08;97687.31;;;23.82;61.46
4814;BME280;15375;48.540;9.268;2023-09-07T07:44:33;97663.91;;;23.63;61.70
4814;BME280;15375;48.540;9.268;2023-09-07T07:46:59;97674.84;;;23.72;63.12
4814;BME280;15375;48.540;9.268;2023-09-07T07:49:24;97680.03;;;23.90;61.99
4814;BME280;15375;48.540;9.268;2023-09-07T07:51:49;97670.16;;;23.52;62.93
4814;BME280;15375;48.540;9.268;2023-09-07T07:54:15;97692.97;;;23.25;64.82
4814;BME280;15375;48.540;9.268;2023-09-07T07:56:43;97689.84;;;23.43;66.05
4814;BME280;15375;48.540;9.268;2023-09-07T07:59:08;97695.53;;;24.02;64.58
4814;BME280;15375;48.540;9.268;2023-09-07T08:01:34;97688.00;;;24.08;62.71
4814;BME280;15375;48.540;9.268;2023-09-07T08:03:59;97703.63;;;24.00;63.20
4814;BME280;15375;48.540;9.268;2023-09-07T08:06:24;97698.38;;;24.07;64.22
4814;BME280;15375;48.540;9.268;2023-09-07T08:08:50;97681.94;;;24.15;62.57
4814;BME280;15375;48.540;9.268;2023-09-07T08:11:15;97678.47;;;24.31;63.56
4814;BME280;15375;48.540;9.268;2023-09-07T08:13:41;97679.25;;;23.84;65.26
4814;BME280;15375;48.540;9.268;2023-09-07T08:16:09;97690.84;;;24.25;64.26
4814;BME280;15375;48.540;9.268;2023-09-07T08:18:34;97685.09;;;24.39;62.28
4814;BME280;15375;48.540;9.268;2023-09-07T08:21:00;97663.25;;;24.21;63.63
4814;BME280;15375;48.540;9.268;2023-09-07T08:23:25;97685.19;;;24.72;62.00
4814;BME280;15375;48.540;9.268;2023-09-07T08:25:51;97668.00;;;24.80;62.47
4814;BME280;15375;48.540;9.268;2023-09-07T08:28:17;97656.34;;;24.98;62.01
4814;BME280;15375;48.540;9.268;2023-09-07T08:30:43;97644.44;;;24.97;60.23
4814;BME280;15375;48.540;9.268;2023-09-07T08:33:09;97667.53;;;25.31;59.27
4814;BME280;15375;48.540;9.268;2023-09-07T08:35:34;97662.94;;;25.72;60.10
4814;BME280;15375;48.540;9.268;2023-09-07T08:38:03;97660.84;;;25.95;58.94
4814;BME280;15375;48.540;9.268;2023-09-07T08:40:33;97671.84;;;25.60;58.61
4814;BME280;15375;48.540;9.268;2023-09-07T08:43:03;97670.31;;;25.25;58.94
4814;BME280;15375;48.540;9.268;2023-09-07T08:45:29;97680.19;;;25.43;62.28
4814;BME280;15375;48.540;9.268;2023-09-07T08:47:57;97662.22;;;25.50;58.60
4814;BME280;15375;48.540;9.268;2023-09-07T08:50:23;97664.19;;;25.77;59.30
4814;BME280;15375;48.540;9.268;2023-09-07T08:52:51;97679.66;;;25.83;59.34
4814;BME280;15375;48.540;9.268;2023-09-07T08:55:17;97669.53;;;25.80;58.24
4814;BME280;15375;48.540;9.268;2023-09-07T08:57:42;97679.59;;;26.11;59.04
4814;BME280;15375;48.540;9.268;2023-09-07T09:00:08;97685.47;;;26.02;58.29
4814;BME280;15375;48.540;9.268;2023-09-07T09:02:39;97674.31;;;25.96;58.50
4814;BME280;15375;48.540;9.268;2023-09-07T09:05:05;97669.19;;;26.00;57.78
4814;BME280;15375;48.540;9.268;2023-09-07T09:07:30;97681.16;;;25.95;58.63
4814;BME280;15375;48.540;9.268;2023-09-07T09:10:07;97681.16;;;25.95;58.36
4814;BME280;15375;48.540;9.268;2023-09-07T09:12:33;97681.63;;;26.16;60.10
4814;BME280;15375;48.540;9.268;2023-09-07T09:14:59;97665.66;;;25.94;56.95
4814;BME280;15375;48.540;9.268;2023-09-07T09:17:26;97675.13;;;25.69;59.92
4814;BME280;15375;48.540;9.268;2023-09-07T09:19:51;97683.75;;;25.71;59.57
4814;BME280;15375;48.540;9.268;2023-09-07T09:22:17;97671.06;;;25.70;60.08
4814;BME280;15375;48.540;9.268;2023-09-07T09:24:42;97675.38;;;25.77;60.36
4814;BME280;15375;48.540;9.268;2023-09-07T09:27:08;97660.63;;;25.87;60.06
4814;BME280;15375;48.540;9.268;2023-09-07T09:29:34;97668.53;;;25.78;61.79
4814;BME280;15375;48.540;9.268;2023-09-07T09:32:02;97672.66;;;26.34;61.01
4814;BME280;15375;48.540;9.268;2023-09-07T09:34:37;97670.38;;;26.85;59.07
4814;BME280;15375;48.540;9.268;2023-09-07T09:37:03;97671.31;;;26.98;59.59
4814;BME280;15375;48.540;9.268;2023-09-07T09:39:29;97652.34;;;27.15;56.77
4814;BME280;15375;48.540;9.268;2023-09-07T09:41:55;97660.09;;;27.34;56.09
4814;BME280;15375;48.540;9.268;2023-09-07T09:44:22;97636.56;;;26.83;57.75
4814;BME280;15375;48.540;9.268;2023-09-07T09:46:52;97651.97;;;27.00;56.08
4814;BME280;15375;48.540;9.268;2023-09-07T09:49:20;97659.41;;;26.92;58.15
4814;BME280;15375;48.540;9.268;2023-09-07T09:51:48;97653.44;;;27.07;56.35
4814;BME280;15375;48.540;9.268;2023-09-07T09:54:16;97639.16;;;26.70;57.54
4814;BME280;15375;48.540;9.268;2023-09-07T09:56:42;97669.06;;;26.91;59.37
4814;BME280;15375;48.540;9.268;2023-09-07T09:59:07;97650.41;;;27.05;55.88
4814;BME280;15375;48.540;9.268;2023-09-07T10:01:46;97650.84;;;27.44;56.25
4814;BME280;15375;48.540;9.268;2023-09-07T10:04:14;97641.97;;;27.10;57.71
4814;BME280;15375;48.540;9.268;2023-09-07T10:06:58;97647.31;;;27.44;56.16
4814;BME280;15375;48.540;9.268;2023-09-07T10:09:29;97649.38;;;27.08;58.07
4814;BME280;15375;48.540;9.268;2023-09-07T10:11:57;97651.22;;;26.94;58.22
4814;BME280;15375;48.540;9.268;2023-09-07T10:14:24;97624.81;;;27.19;59.18
4814;BME280;15375;48.540;9.268;2023-09-07T10:16:52;97628.09;;;27.77;56.37
4814;BME280;15375;48.540;9.268;2023-09-07T10:19:20;97638.91;;;28.16;55.24
4814;BME280;15375;48.540;9.268;2023-09-07T10:21:46;97625.78;;;28.43;54.73
4814;BME280;15375;48.540;9.268;2023-09-07T10:24:23;97627.16;;;28.55;55.07
4814;BME280;15375;48.540;9.268;2023-09-07T10:27:03;97631.56;;;28.51;55.33
4814;BME280;15375;48.540;9.268;2023-09-07T10:30:01;97614.88;;;28.21;56.91
4814;BME280;15375;48.540;9.268;2023-09-07T10:32:25;97617.97;;;28.17;55.26
4814;BME280;15375;48.540;9.268;2023-09-07T10:34:51;97593.13;;;27.60;55.53
4814;BME280;15375;48.540;9.268;2023-09-07T10:37:16;97633.91;;;28.09;55.29
4814;BME280;15375;48.540;9.268;2023-09-07T10:39:43;97622.63;;;28.33;56.45
4814;BME280;15375;48.540;9.268;2023-09-07T10:42:25;97619.78;;;28.15;57.16
4814;BME280;15375;48.540;9.268;2023-09-07T10:44:51;97597.22;;;28.44;55.08
4814;BME280;15375;48.540;9.268;2023-09-07T10:47:17;97605.78;;;28.71;53.72
4814;BME280;15375;48.540;9.268;2023-09-07T10:49:42;97613.16;;;28.36;56.83
4814;BME280;15375;48.540;9.268;2023-09-07T10:52:08;97609.97;;;28.64;56.39
4814;BME280;15375;48.540;9.268;2023-09-07T10:54:33;97604.34;;;28.45;56.85
4814;BME280;15375;48.540;9.268;2023-09-07T10:57:07;97602.22;;;28.33;55.09
4814;BME280;15375;48.540;9.268;2023-09-07T10:59:33;97594.97;;;28.00;56.46
4814;BME280;15375;48.540;9.268;2023-09-07T11:02:05;97599.63;;;28.54;58.44
4814;BME280;15375;48.540;9.268;2023-09-07T11:04:31;97610.06;;;28.90;57.08
4814;BME280;15375;48.540;9.268;2023-09-07T11:06:57;97593.09;;;28.83;54.12
4814;BME280;15375;48.540;9.268;2023-09-07T11:09:22;97601.75;;;28.85;55.54
4814;BME280;15375;48.540;9.268;2023-09-07T11:11:48;97591.31;;;28.67;56.76
4814;BME280;15375;48.540;9.268;2023-09-07T11:14:13;97580.97;;;28.56;56.55
4814;BME280;15375;48.540;9.268;2023-09-07T11:16:40;97578.28;;;28.32;55.63
4814;BME280;15375;48.540;9.268;2023-09-07T11:19:07;97594.97;;;28.62;56.33
4814;BME280;15375;48.540;9.268;2023-09-07T11:21:34;97563.38;;;28.56;57.26
4814;BME280;15375;48.540;9.268;2023-09-07T11:24:01;97575.78;;;28.60;58.79
4814;BME280;15375;48.540;9.268;2023-09-07T11:26:39;97564.19;;;29.20;54.83
4814;BME280;15375;48.540;9.268;2023-09-07T11:29:05;97570.03;;;29.03;55.54
4814;BME280;15375;48.540;9.268;2023-09-07T11:31:30;97580.53;;;29.02;57.31
4814;BME280;15375;48.540;9.268;2023-09-07T11:33:56;97562.16;;;29.01;55.97
4814;BME280;15375;48.540;9.268;2023-09-07T11:36:21;97568.78;;;29.17;57.57
4814;BME280;15375;48.540;9.268;2023-09-07T11:38:49;97562.06;;;29.07;56.25
4814;BME280;15375;48.540;9.268;2023-09-07T11:41:15;97557.75;;;29.06;55.25
4814;BME280;15375;48.540;9.268;2023-09-07T11:43:40;97560.19;;;28.96;55.02
4814;BME280;15375;48.540;9.268;2023-09-07T11:46:07;97557.16;;;28.63;56.18
4814;BME280;15375;48.540;9.268;2023-09-07T11:48:33;97563.75;;;28.65;57.57
4814;BME280;15375;48.540;9.268;2023-09-07T11:50:59;97549.13;;;28.72;56.53
4814;BME280;15375;48.540;9.268;2023-09-07T11:53:25;97547.81;;;28.73;55.63
4814;BME280;15375;48.540;9.268;2023-09-07T11:55:50;97537.91;;;28.35;56.18
4814;BME280;15375;48.540;9.268;2023-09-07T11:58:15;97551.16;;;28.53;57.35
4814;BME280;15375;48.540;9.268;2023-09-07T12:00:41;97552.28;;;28.82;56.00
4814;BME280;15375;48.540;9.268;2023-09-07T12:03:07;97552.16;;;29.19;56.51
4814;BME280;15375;48.540;9.268;2023-09-07T12:05:32;97538.38;;;29.34;54.56
4814;BME280;15375;48.540;9.268;2023-09-07T12:07:58;97533.50;;;29.22;53.75
4814;BME280;15375;48.540;9.268;2023-09-07T12:10:23;97544.38;;;29.12;54.87
4814;BME280;15375;48.540;9.268;2023-09-07T12:12:48;97552.03;;;29.12;56.55
4814;BME280;15375;48.540;9.268;2023-09-07T12:15:14;97539.53;;;29.26;54.32
4814;BME280;15375;48.540;9.268;2023-09-07T12:17:39;97542.91;;;29.24;54.20
4814;BME280;15375;48.540;9.268;2023-09-07T12:20:06;97547.09;;;29.18;54.94
4814;BME280;15375;48.540;9.268;2023-09-07T12:22:35;97547.59;;;29.16;53.71
4814;BME280;15375;48.540;9.268;2023-09-07T12:25:03;97521.75;;;28.91;55.06
4814;BME280;15375;48.540;9.268;2023-09-07T12:27:28;97541.56;;;29.12;54.11
4814;BME280;15375;48.540;9.268;2023-09-07T12:29:54;97536.97;;;28.96;54.66
4814;BME280;15375;48.540;9.268;2023-09-07T12:32:19;97523.44;;;28.81;56.62
4814;BME280;15375;48.540;9.268;2023-09-07T12:34:44;97534.75;;;28.76;56.19
4814;BME280;15375;48.540;9.268;2023-09-07T12:37:10;97532.03;;;29.02;54.59
4814;BME280;15375;48.540;9.268;2023-09-07T12:39:35;97517.91;;;28.76;55.48
4814;BME280;15375;48.540;9.268;2023-09-07T12:42:01;97519.91;;;28.94;56.05
4814;BME280;15375;48.540;9.268;2023-09-07T12:44:27;97508.69;;;28.94;55.58
4814;BME280;15375;48.540;9.268;2023-09-07T12:46:52;97529.38;;;29.36;55.54
4814;BME280;15375;48.540;9.268;2023-09-07T12:49:17;97520.44;;;29.50;53.77
4814;BME280;15375;48.540;9.268;2023-09-07T12:51:46;97522.47;;;29.76;54.83
4814;BME280;15375;48.540;9.268;2023-09-07T12:54:12;97506.50;;;29.58;53.06
4814;BME280;15375;48.540;9.268;2023-09-07T12:56:37;97511.13;;;29.42;52.66
4814;BME280;15375;48.540;9.268;2023-09-07T12:59:03;97490.66;;;29.16;52.90
4814;BME280;15375;48.540;9.268;2023-09-07T13:01:29;97510.88;;;29.14;53.29
4814;BME280;15375;48.540;9.268;2023-09-07T13:03:54;97517.94;;;29.47;54.61